Karl Stefan Memorial Airport
KOFK : rendu visible

Aérodrome :











RETROUVEZ-NOUS SUR...

 
LOGIN :

S'inscrire | Disclaimer

   EN    FR    IT 

 









Légende :    VFR   VFR Marginal   IFR   IFR Intensif   IFR Très Intensif
Visi : 
Plafond : 
>= 8 km
>= 3000ft
5 à 8 km
1000 à 3000 ft
1500m à 5 km
500 à 1000 ft
800 à 1500m
200 à 500 ft
< 800m
< 200 ft
Symboles :   Orages  Brouillard  Fortes neiges  Fortes précipitations  Vent > 20 kt






- Altitude de l'aérodrome : 1573 ft


KOFK - Karl Stefan Memorial

DERNIER METAR :
  • 010556Z AUTO 16014KT 10SM CLR 13/05 A2979 RMK AO2 SLP085 T01280050 10194 20128 402060067 58008

METARs EXPIRÉS :
  • 010456Z AUTO 16011KT 10SM OVC110 13/06 A2980 RMK AO2 SLP091 T01330056
  • 010356Z AUTO 13009KT 10SM BKN110 13/06 A2981 RMK AO2 SLP094 T01280056

TAF KOFK
Valide du 01 à 06h jusqu'au 02 à 06h UTC


010520Z 0106/0206 16010KT P6SM SCT100 WS020/24035KT
FM011300 17010KT P6SM SCT250
FM011700 18015G25KT P6SM SCT200
FM012300 16010KT P6SM BKN200



MET'MAP, la Météo Aéronautique d'un coup d'oeil ! - Copyright ORBIFLY Décembre 2007 - Disclaimer

ORBIFLY MET'MAP TEAM :

Programmation & Développement : Alexandra Zaïnal
Sur une idée originale de : Baudouin d'Aumeries
Assistance à la programmation : Marc-Olivier Méhu
Soutien technique & logistique : Manuel Goepfert

Contact : metmap@orbifly.com




SOURCES & CREDITS :

   NOAA       Earth
Advisory